createdAt,value
2023-02-25T00:00:17.652Z,2.13
2023-02-25T00:02:46.307Z,1.77
2023-02-25T00:05:15.771Z,1.98
2023-02-25T00:07:46.680Z,1.77
2023-02-25T00:10:15.712Z,1.50
2023-02-25T00:12:45.066Z,1.30
2023-02-25T00:15:13.877Z,2.67
2023-02-25T00:17:43.955Z,1.52
2023-02-25T00:20:14.138Z,1.45
2023-02-25T00:22:44.383Z,2.25
2023-02-25T00:25:13.212Z,1.73
2023-02-25T00:27:41.686Z,1.58
2023-02-25T00:30:12.405Z,1.92
2023-02-25T00:32:41.009Z,1.70
2023-02-25T00:35:12.789Z,1.30
2023-02-25T00:37:41.274Z,1.15
2023-02-25T00:40:15.269Z,1.55
2023-02-25T00:42:43.796Z,1.70
2023-02-25T00:45:13.771Z,1.20
2023-02-25T00:47:42.233Z,1.80
2023-02-25T00:50:14.340Z,1.20
2023-02-25T00:52:43.361Z,1.38
2023-02-25T00:55:13.436Z,1.33
2023-02-25T00:57:43.245Z,1.88
2023-02-25T01:00:16.937Z,1.35
2023-02-25T01:02:46.423Z,1.33
2023-02-25T01:05:15.737Z,1.00
2023-02-25T01:07:44.688Z,0.98
2023-02-25T01:10:14.749Z,1.88
2023-02-25T01:12:43.179Z,1.25
2023-02-25T01:15:13.368Z,1.58
2023-02-25T01:17:41.858Z,1.95
2023-02-25T01:20:13.127Z,2.40
2023-02-25T01:22:42.076Z,1.55
2023-02-25T01:25:17.515Z,1.30
2023-02-25T01:27:46.056Z,1.67
2023-02-25T01:30:14.886Z,1.00
2023-02-25T01:32:43.436Z,1.42
2023-02-25T01:35:12.236Z,1.42
2023-02-25T01:37:40.738Z,1.70
2023-02-25T01:40:17.202Z,1.73
2023-02-25T01:42:46.799Z,1.88
2023-02-25T01:45:30.494Z,1.50
2023-02-25T01:48:13.006Z,1.50
2023-02-25T01:50:50.587Z,1.48
2023-02-25T01:53:24.936Z,1.55
2023-02-25T01:55:58.616Z,1.85
2023-02-25T01:58:29.085Z,2.53
2023-02-25T02:00:57.859Z,1.88
2023-02-25T02:03:33.347Z,2.05
2023-02-25T02:06:10.533Z,1.77
2023-02-25T02:08:41.891Z,2.30
2023-02-25T02:11:12.062Z,1.40
2023-02-25T02:13:44.618Z,1.20
2023-02-25T02:16:41.417Z,1.42
2023-02-25T02:19:28.997Z,1.60
2023-02-25T02:22:09.720Z,1.38
2023-02-25T02:25:16.294Z,1.20
2023-02-25T02:28:33.712Z,1.45
2023-02-25T02:31:39.853Z,1.00
2023-02-25T02:34:21.881Z,1.25
2023-02-25T02:37:02.026Z,1.13
2023-02-25T02:39:45.744Z,1.40
2023-02-25T02:42:27.348Z,1.20
2023-02-25T02:45:05.079Z,1.10
2023-02-25T02:47:38.976Z,1.05
2023-02-25T02:50:13.361Z,1.02
2023-02-25T02:52:47.842Z,1.35
2023-02-25T02:55:23.399Z,0.95
2023-02-25T02:57:59.461Z,1.75
2023-02-25T03:00:37.741Z,1.00
2023-02-25T03:03:13.727Z,1.05
2023-02-25T03:05:46.809Z,1.92
2023-02-25T03:08:21.854Z,2.70
2023-02-25T03:10:50.327Z,1.63
2023-02-25T03:13:18.959Z,1.35
2023-02-25T03:15:49.988Z,0.93
2023-02-25T03:18:26.846Z,0.90
2023-02-25T03:20:57.422Z,0.80
2023-02-25T03:23:32.367Z,1.20
2023-02-25T03:26:15.782Z,0.88
2023-02-25T03:28:47.010Z,1.35
2023-02-25T03:31:22.502Z,0.80
2023-02-25T03:33:56.669Z,0.82
2023-02-25T03:36:31.586Z,0.88
2023-02-25T03:39:06.408Z,0.73
2023-02-25T03:41:40.372Z,1.30
2023-02-25T03:44:13.968Z,0.75
2023-02-25T03:46:47.238Z,0.95
2023-02-25T03:49:24.226Z,0.65
2023-02-25T03:51:55.199Z,0.47
2023-02-25T03:54:23.644Z,0.40
2023-02-25T03:56:53.341Z,0.60
2023-02-25T03:59:23.762Z,0.70
2023-02-25T04:01:54.520Z,0.70
2023-02-25T04:04:24.506Z,0.60
2023-02-25T04:06:52.908Z,0.22
2023-02-25T04:09:21.655Z,0.77
2023-02-25T04:11:50.089Z,0.40
2023-02-25T04:14:18.497Z,0.40
2023-02-25T04:16:46.917Z,0.47
2023-02-25T04:19:15.306Z,0.65
2023-02-25T04:21:45.293Z,0.20
2023-02-25T04:24:13.715Z,0.80
2023-02-25T04:26:42.131Z,0.38
2023-02-25T04:29:10.534Z,0.55
2023-02-25T04:31:39.148Z,0.45
2023-02-25T04:34:07.806Z,0.43
2023-02-25T04:36:37.303Z,0.45
2023-02-25T04:39:07.399Z,0.68
2023-02-25T04:41:37.200Z,0.22
2023-02-25T04:44:07.314Z,0.30
2023-02-25T04:46:39.035Z,0.43
2023-02-25T04:49:09.551Z,0.50
2023-02-25T04:51:40.389Z,0.30
2023-02-25T04:54:10.191Z,0.50
2023-02-25T04:56:39.431Z,0.32
2023-02-25T04:59:11.420Z,0.80
2023-02-25T05:01:40.270Z,1.05
2023-02-25T05:04:08.944Z,0.40
2023-02-25T05:06:37.373Z,0.43
2023-02-25T05:09:09.297Z,0.60
2023-02-25T05:11:40.068Z,0.68
2023-02-25T05:14:08.491Z,0.40
2023-02-25T05:16:37.003Z,0.55
2023-02-25T05:19:05.537Z,0.45
2023-02-25T05:21:34.936Z,0.57
2023-02-25T05:24:03.873Z,0.60
2023-02-25T05:26:32.271Z,0.50
2023-02-25T05:29:02.100Z,0.63
2023-02-25T05:31:30.664Z,0.30
2023-02-25T05:33:59.481Z,0.30
2023-02-25T05:36:28.560Z,0.55
2023-02-25T05:39:02.784Z,0.35
2023-02-25T05:41:32.258Z,0.60
2023-02-25T05:44:02.059Z,0.55
2023-02-25T05:46:30.601Z,0.68
2023-02-25T05:48:59.117Z,0.50
2023-02-25T05:51:27.661Z,0.35
2023-02-25T05:53:57.420Z,0.95
2023-02-25T05:56:30.162Z,0.60
2023-02-25T05:59:01.509Z,0.40
2023-02-25T06:01:31.721Z,0.30
2023-02-25T06:04:00.720Z,0.35
2023-02-25T06:06:32.073Z,0.50
2023-02-25T06:09:00.720Z,0.50
2023-02-25T06:11:31.691Z,0.50
2023-02-25T06:14:02.491Z,0.50
2023-02-25T06:16:32.775Z,0.57
2023-02-25T06:19:03.057Z,0.63
2023-02-25T06:21:31.859Z,0.50
2023-02-25T06:24:01.197Z,0.57
2023-02-25T06:26:30.259Z,0.67
2023-02-25T06:28:58.694Z,0.57
2023-02-25T06:31:28.826Z,0.60
2023-02-25T06:33:57.258Z,0.60
2023-02-25T06:36:25.937Z,0.50
2023-02-25T06:38:54.841Z,0.50
2023-02-25T06:41:24.568Z,0.60
2023-02-25T06:43:53.756Z,0.30
2023-02-25T06:46:25.181Z,0.57
2023-02-25T06:48:56.045Z,0.50
2023-02-25T06:51:25.871Z,0.30
2023-02-25T06:53:54.279Z,0.30
2023-02-25T06:56:23.243Z,0.82
2023-02-25T06:58:53.354Z,0.50
2023-02-25T07:01:21.984Z,0.30
2023-02-25T07:03:50.924Z,0.50
2023-02-25T07:06:21.902Z,0.30
2023-02-25T07:08:50.700Z,0.40
2023-02-25T07:11:33.685Z,0.40
2023-02-25T07:14:02.641Z,0.30
2023-02-25T07:16:31.446Z,0.30
2023-02-25T07:19:02.266Z,0.50
2023-02-25T07:21:33.732Z,0.60
2023-02-25T07:24:02.148Z,0.45
2023-02-25T07:26:30.701Z,0.40
2023-02-25T07:29:00.536Z,0.60
2023-02-25T07:31:30.087Z,0.40
2023-02-25T07:34:03.473Z,0.82
2023-02-25T07:36:37.626Z,0.65
2023-02-25T07:39:08.439Z,0.60
2023-02-25T07:41:37.770Z,1.13
2023-02-25T07:44:09.389Z,0.68
2023-02-25T07:46:38.883Z,0.50
2023-02-25T07:49:07.290Z,0.77
2023-02-25T07:51:37.127Z,0.60
2023-02-25T07:54:05.837Z,1.10
2023-02-25T07:56:34.264Z,0.40
2023-02-25T07:59:02.715Z,0.60
2023-02-25T08:01:34.782Z,0.50
2023-02-25T08:04:05.822Z,0.75
2023-02-25T08:06:39.235Z,0.90
2023-02-25T08:09:11.163Z,1.08
2023-02-25T08:11:40.628Z,1.35
2023-02-25T08:14:09.163Z,0.93
2023-02-25T08:16:37.707Z,0.95
2023-02-25T08:19:06.741Z,1.08
2023-02-25T08:21:35.258Z,0.80
2023-02-25T08:24:05.730Z,0.68
2023-02-25T08:26:34.402Z,1.08
2023-02-25T08:29:02.983Z,0.80
2023-02-25T08:31:32.100Z,0.63
2023-02-25T08:34:00.880Z,0.90
2023-02-25T08:36:31.665Z,1.25
2023-02-25T08:39:01.214Z,1.15
2023-02-25T08:41:32.149Z,1.02
2023-02-25T08:44:02.075Z,1.45
2023-02-25T08:46:33.711Z,1.58
2023-02-25T08:49:02.619Z,1.00
2023-02-25T08:51:35.126Z,1.08
2023-02-25T08:54:06.779Z,1.10
2023-02-25T08:56:37.928Z,1.40
2023-02-25T08:59:07.286Z,1.52
2023-02-25T09:01:45.809Z,1.38
2023-02-25T09:04:15.471Z,0.93
2023-02-25T09:06:44.446Z,1.30
2023-02-25T09:09:13.448Z,1.55
2023-02-25T09:11:43.950Z,0.98
2023-02-25T09:14:12.978Z,1.33
2023-02-25T09:16:41.563Z,1.70
2023-02-25T09:19:10.836Z,1.40
2023-02-25T09:21:40.442Z,1.55
2023-02-25T09:24:10.212Z,1.17
2023-02-25T09:26:38.870Z,1.83
2023-02-25T09:29:09.142Z,1.50
2023-02-25T09:31:39.767Z,1.75
2023-02-25T09:34:15.340Z,2.22
2023-02-25T09:36:44.161Z,2.28
2023-02-25T09:39:12.829Z,2.58
2023-02-25T09:41:53.967Z,1.10
2023-02-25T09:44:30.527Z,1.50
2023-02-25T09:47:05.243Z,2.03
2023-02-25T09:49:38.618Z,2.10
2023-02-25T09:52:18.588Z,1.40
2023-02-25T09:54:49.549Z,1.83
2023-02-25T09:57:22.566Z,1.23
2023-02-25T09:59:54.512Z,1.17
2023-02-25T10:02:36.995Z,1.63
2023-02-25T10:05:23.424Z,1.25
2023-02-25T10:08:08.782Z,1.77
2023-02-25T10:10:47.880Z,1.52
2023-02-25T10:13:31.740Z,1.60
2023-02-25T10:16:14.686Z,2.10
2023-02-25T10:18:57.956Z,2.00
2023-02-25T10:21:56.798Z,2.35
2023-02-25T10:24:35.873Z,1.48
2023-02-25T10:27:18.203Z,1.70
2023-02-25T10:29:53.041Z,1.95
2023-02-25T10:32:25.683Z,1.30
2023-02-25T10:34:57.957Z,1.85
2023-02-25T10:37:34.350Z,1.75
2023-02-25T10:40:11.043Z,1.95
2023-02-25T10:42:39.775Z,1.60
2023-02-25T10:45:14.873Z,2.03
2023-02-25T10:47:50.154Z,1.98
2023-02-25T10:50:27.715Z,1.23
2023-02-25T10:53:04.741Z,1.10
2023-02-25T10:55:52.501Z,1.63
2023-02-25T10:58:33.421Z,1.00
2023-02-25T11:01:08.164Z,1.20
2023-02-25T11:03:47.790Z,1.38
2023-02-25T11:06:26.145Z,1.40
2023-02-25T11:08:58.544Z,1.30
2023-02-25T11:11:31.836Z,2.67
2023-02-25T11:14:07.754Z,3.08
2023-02-25T11:16:39.060Z,2.33
2023-02-25T11:19:18.376Z,2.50
2023-02-25T11:21:47.800Z,1.67
2023-02-25T11:24:20.128Z,2.10
2023-02-25T11:26:52.297Z,1.80
2023-02-25T11:29:26.338Z,1.23
2023-02-25T11:31:59.725Z,1.60
2023-02-25T11:34:32.962Z,1.67
2023-02-25T11:37:27.905Z,1.67
2023-02-25T11:39:57.963Z,1.92
2023-02-25T11:42:30.180Z,1.20
2023-02-25T11:45:03.332Z,1.50
2023-02-25T11:47:34.078Z,1.30
2023-02-25T11:50:30.316Z,1.10
2023-02-25T11:53:10.171Z,1.20
2023-02-25T11:55:55.390Z,1.40
2023-02-25T11:58:37.795Z,1.98
2023-02-25T12:01:17.942Z,1.33
2023-02-25T12:04:07.919Z,1.25
2023-02-25T12:07:19.918Z,1.20
2023-02-25T12:10:39.746Z,1.38
2023-02-25T12:13:55.601Z,1.38
2023-02-25T12:17:19.109Z,1.67
2023-02-25T12:20:44.813Z,1.10
2023-02-25T12:24:01.900Z,1.33
2023-02-25T12:26:53.116Z,1.55
2023-02-25T12:29:49.295Z,1.67
2023-02-25T12:32:59.764Z,1.65
2023-02-25T12:36:03.911Z,1.52
2023-02-25T12:41:41.030Z,1.58
2023-02-25T12:45:09.732Z,1.40
2023-02-25T12:47:57.725Z,2.10
2023-02-25T12:50:57.408Z,1.48
2023-02-25T12:53:37.227Z,0.75
2023-02-25T12:56:31.389Z,1.20
2023-02-25T12:59:56.626Z,1.15
2023-02-25T13:02:44.469Z,1.73
2023-02-25T13:05:49.007Z,0.80
2023-02-25T13:08:48.096Z,1.20
2023-02-25T13:11:34.561Z,1.00
2023-02-25T13:14:37.269Z,1.55
2023-02-25T13:17:43.775Z,1.33
2023-02-25T13:21:03.412Z,1.35
2023-02-25T13:23:48.302Z,1.20
2023-02-25T13:26:34.748Z,0.90
2023-02-25T13:29:24.440Z,0.98
2023-02-25T13:32:16.514Z,1.10
2023-02-25T13:34:56.998Z,1.30
2023-02-25T13:37:42.952Z,1.00
2023-02-25T13:40:31.713Z,1.50
2023-02-25T13:43:14.969Z,1.50
2023-02-25T13:45:58.230Z,1.65
2023-02-25T13:49:15.845Z,1.35
2023-02-25T13:52:18.404Z,1.25
2023-02-25T13:55:28.324Z,1.10
2023-02-25T13:58:29.478Z,1.02
2023-02-25T14:01:29.109Z,0.90
2023-02-25T14:04:51.924Z,1.02
2023-02-25T14:07:55.780Z,0.93
2023-02-25T14:10:56.039Z,1.08
2023-02-25T14:13:59.770Z,1.15
2023-02-25T14:16:57.549Z,1.40
2023-02-25T14:19:48.567Z,0.95
2023-02-25T14:22:45.347Z,0.90
2023-02-25T14:25:29.070Z,1.50
2023-02-25T14:28:15.731Z,1.48
2023-02-25T14:30:59.388Z,1.85
2023-02-25T14:34:14.310Z,1.40
2023-02-25T14:37:08.586Z,0.98
2023-02-25T14:39:51.664Z,0.90
2023-02-25T14:42:49.902Z,1.42
2023-02-25T14:45:27.321Z,1.27
2023-02-25T14:48:03.369Z,1.30
2023-02-25T14:50:41.483Z,1.52
2023-02-25T14:53:49.098Z,1.40
2023-02-25T14:56:57.472Z,1.73
2023-02-25T14:59:54.169Z,1.30
2023-02-25T15:03:04.942Z,1.23
2023-02-25T15:05:50.216Z,1.10
2023-02-25T15:08:53.606Z,1.10
2023-02-25T15:11:48.916Z,1.20
2023-02-25T15:15:02.678Z,2.22
2023-02-25T15:18:18.890Z,2.20
2023-02-25T15:20:48.306Z,1.77
2023-02-25T15:23:20.826Z,1.25
2023-02-25T15:25:56.559Z,3.75
2023-02-25T15:28:48.349Z,1.73
2023-02-25T15:31:38.995Z,1.25
2023-02-25T15:34:53.003Z,1.48
2023-02-25T15:37:34.665Z,1.48
2023-02-25T15:40:42.466Z,1.48
2023-02-25T15:43:46.738Z,0.90
2023-02-25T15:46:45.186Z,1.33
2023-02-25T15:49:31.940Z,1.67
2023-02-25T15:52:04.748Z,1.95
2023-02-25T15:54:53.897Z,2.10
2023-02-25T15:57:39.664Z,2.20
2023-02-25T16:01:02.878Z,1.73
2023-02-25T16:03:44.436Z,1.77
2023-02-25T16:06:20.568Z,1.33
2023-02-25T16:08:58.578Z,1.75
2023-02-25T16:11:39.236Z,2.03
2023-02-25T16:14:18.225Z,2.22
2023-02-25T16:16:52.378Z,1.45
2023-02-25T16:19:28.558Z,1.60
2023-02-25T16:22:02.584Z,1.67
2023-02-25T16:24:32.404Z,1.58
2023-02-25T16:27:09.793Z,2.15
2023-02-25T16:29:56.269Z,1.88
2023-02-25T16:32:40.080Z,1.52
2023-02-25T16:35:17.759Z,1.40
2023-02-25T16:37:59.765Z,1.80
2023-02-25T16:40:33.912Z,1.60
2023-02-25T16:43:04.027Z,1.40
2023-02-25T16:45:45.702Z,1.50
2023-02-25T16:48:25.892Z,1.95
2023-02-25T16:50:56.834Z,1.85
2023-02-25T16:53:29.912Z,1.42
2023-02-25T16:56:02.127Z,1.67
2023-02-25T16:58:32.104Z,1.48
2023-02-25T17:01:04.778Z,3.17
2023-02-25T17:03:47.099Z,2.53
2023-02-25T17:06:19.806Z,2.90
2023-02-25T17:08:50.544Z,1.80
2023-02-25T17:11:25.907Z,2.43
2023-02-25T17:13:59.441Z,3.03
2023-02-25T17:16:34.130Z,2.83
2023-02-25T17:19:09.330Z,2.33
2023-02-25T17:21:41.705Z,2.90
2023-02-25T17:24:16.970Z,2.33
2023-02-25T17:26:50.050Z,3.20
2023-02-25T17:29:21.919Z,3.40
2023-02-25T17:31:55.616Z,3.47
2023-02-25T17:34:34.857Z,2.25
2023-02-25T17:37:10.470Z,2.88
2023-02-25T17:39:42.327Z,3.47
2023-02-25T17:42:33.740Z,3.10
2023-02-25T17:45:05.428Z,3.50
2023-02-25T17:47:38.563Z,2.50
2023-02-25T17:50:28.602Z,2.40
2023-02-25T17:52:59.926Z,3.38
2023-02-25T17:55:34.363Z,3.42
2023-02-25T17:58:07.292Z,3.53
2023-02-25T18:00:39.989Z,1.87
2023-02-25T18:03:19.268Z,1.73
2023-02-25T18:05:57.681Z,2.37
2023-02-25T18:08:29.083Z,2.10
2023-02-25T18:11:04.269Z,1.83
2023-02-25T18:13:39.247Z,1.33
2023-02-25T18:16:40.780Z,1.50
2023-02-25T18:19:32.623Z,1.07
2023-02-25T18:22:05.975Z,1.70
2023-02-25T18:24:39.340Z,1.10
2023-02-25T18:27:30.816Z,1.63
2023-02-25T18:30:16.336Z,2.00
2023-02-25T18:32:47.177Z,2.23
2023-02-25T18:35:17.791Z,1.23
2023-02-25T18:37:52.535Z,1.77
2023-02-25T18:40:32.383Z,1.20
2023-02-25T18:43:02.473Z,1.27
2023-02-25T18:45:34.133Z,1.20
2023-02-25T18:48:03.793Z,1.47
2023-02-25T18:50:36.575Z,1.00
2023-02-25T18:53:08.896Z,1.00
2023-02-25T18:55:38.757Z,1.47
2023-02-25T18:58:16.874Z,1.17
2023-02-25T19:00:50.384Z,1.00
2023-02-25T19:03:26.724Z,1.73
2023-02-25T19:05:57.950Z,0.90
2023-02-25T19:08:29.746Z,1.27
2023-02-25T19:11:01.314Z,1.33
2023-02-25T19:13:37.024Z,1.17
2023-02-25T19:16:07.851Z,1.17
2023-02-25T19:18:40.088Z,0.83
2023-02-25T19:21:16.210Z,1.60
2023-02-25T19:23:51.743Z,0.80
2023-02-25T19:26:23.204Z,1.40
2023-02-25T19:28:53.582Z,1.00
2023-02-25T19:31:26.498Z,0.83
2023-02-25T19:33:57.186Z,1.47
2023-02-25T19:36:27.452Z,1.07
2023-02-25T19:38:59.189Z,1.13
2023-02-25T19:41:29.356Z,0.93
2023-02-25T19:43:59.383Z,1.00
2023-02-25T19:46:29.315Z,1.77
2023-02-25T19:48:59.666Z,1.83
2023-02-25T19:51:30.915Z,1.47
2023-02-25T19:54:02.576Z,1.50
2023-02-25T19:56:32.880Z,1.90
2023-02-25T19:59:03.014Z,1.20
2023-02-25T20:01:32.695Z,1.20
2023-02-25T20:04:03.061Z,1.23
2023-02-25T20:06:33.713Z,0.80
2023-02-25T20:09:05.387Z,1.40
2023-02-25T20:11:36.199Z,1.47
2023-02-25T20:14:07.365Z,1.63
2023-02-25T20:16:37.287Z,1.45
2023-02-25T20:19:07.780Z,2.33
2023-02-25T20:21:39.435Z,2.10
2023-02-25T20:24:11.598Z,1.40
2023-02-25T20:26:41.898Z,1.30
2023-02-25T20:29:12.378Z,1.92
2023-02-25T20:31:43.520Z,1.40
2023-02-25T20:34:18.639Z,1.73
2023-02-25T20:36:56.234Z,1.60
2023-02-25T20:39:52.665Z,1.95
2023-02-25T20:42:26.252Z,2.57
2023-02-25T20:44:57.760Z,2.05
2023-02-25T20:47:30.853Z,2.92
2023-02-25T20:50:02.655Z,2.22
2023-02-25T20:52:37.478Z,3.17
2023-02-25T20:55:12.964Z,1.60
2023-02-25T20:57:42.357Z,0.82
2023-02-25T21:00:16.469Z,1.67
2023-02-25T21:02:48.645Z,1.67
2023-02-25T21:05:18.296Z,1.35
2023-02-25T21:07:48.319Z,1.58
2023-02-25T21:10:23.788Z,1.90
2023-02-25T21:12:53.730Z,2.28
2023-02-25T21:15:23.658Z,1.83
2023-02-25T21:17:53.898Z,1.80
2023-02-25T21:20:24.655Z,2.03
2023-02-25T21:22:53.310Z,3.03
2023-02-25T21:25:24.436Z,2.30
2023-02-25T21:27:54.410Z,2.70
2023-02-25T21:30:24.123Z,2.17
2023-02-25T21:32:53.456Z,3.63
2023-02-25T21:35:26.585Z,2.17
2023-02-25T21:37:56.147Z,1.53
2023-02-25T21:40:27.662Z,1.43
2023-02-25T21:42:57.876Z,3.00
2023-02-25T21:45:27.179Z,1.80
2023-02-25T21:47:55.790Z,2.00
2023-02-25T21:50:24.726Z,1.55
2023-02-25T21:52:53.876Z,2.00
2023-02-25T21:55:22.620Z,1.53
2023-02-25T21:57:54.644Z,1.90
2023-02-25T22:00:24.333Z,1.42
2023-02-25T22:02:52.841Z,1.35
2023-02-25T22:05:21.864Z,1.42
2023-02-25T22:07:50.854Z,1.47
2023-02-25T22:10:21.374Z,1.50
2023-02-25T22:12:52.396Z,1.37
2023-02-25T22:15:21.489Z,1.73
2023-02-25T22:17:50.043Z,1.70
2023-02-25T22:20:19.439Z,2.50
2023-02-25T22:22:48.048Z,1.45
2023-02-25T22:25:16.886Z,1.73
2023-02-25T22:27:45.438Z,1.55
2023-02-25T22:30:15.850Z,1.30
2023-02-25T22:32:44.301Z,2.37
2023-02-25T22:35:12.876Z,1.87
2023-02-25T22:37:41.896Z,2.00
2023-02-25T22:40:12.523Z,2.00
2023-02-25T22:42:41.550Z,1.93
2023-02-25T22:45:11.415Z,1.50
2023-02-25T22:47:41.302Z,2.20
2023-02-25T22:50:11.332Z,1.70
2023-02-25T22:52:39.792Z,1.60
2023-02-25T22:55:10.246Z,1.10
2023-02-25T22:57:38.820Z,2.17
2023-02-25T23:00:16.890Z,1.80
2023-02-25T23:02:46.913Z,1.70
2023-02-25T23:05:15.626Z,1.77
2023-02-25T23:07:44.068Z,1.23
2023-02-25T23:10:13.246Z,1.40
2023-02-25T23:12:42.433Z,1.70
2023-02-25T23:15:12.105Z,2.00
2023-02-25T23:17:40.589Z,2.80
2023-02-25T23:20:12.878Z,1.98
2023-02-25T23:22:41.360Z,1.65
2023-02-25T23:25:11.224Z,1.52
2023-02-25T23:27:39.702Z,1.70
2023-02-25T23:30:10.302Z,1.53
2023-02-25T23:32:40.677Z,2.15
2023-02-25T23:35:12.182Z,1.97
2023-02-25T23:37:40.731Z,1.70
2023-02-25T23:40:11.983Z,1.63
2023-02-25T23:42:41.246Z,1.67
2023-02-25T23:45:12.239Z,1.83
2023-02-25T23:47:42.951Z,1.90
2023-02-25T23:50:16.780Z,1.63
2023-02-25T23:52:46.937Z,1.90
2023-02-25T23:55:17.468Z,2.10
2023-02-25T23:57:45.929Z,1.60
